createdAt,value
2024-01-30T00:00:19.757Z,8.53
2024-01-30T00:02:48.228Z,8.55
2024-01-30T00:05:16.502Z,8.53
2024-01-30T00:07:44.245Z,8.52
2024-01-30T00:10:13.733Z,8.51
2024-01-30T00:12:43.029Z,8.47
2024-01-30T00:15:19.508Z,8.40
2024-01-30T00:17:47.079Z,8.46
2024-01-30T00:20:15.465Z,8.40
2024-01-30T00:22:47.138Z,8.44
2024-01-30T00:25:14.948Z,8.50
2024-01-30T00:27:42.177Z,8.40
2024-01-30T00:30:13.738Z,8.40
2024-01-30T00:32:42.717Z,8.47
2024-01-30T00:35:14.619Z,8.56
2024-01-30T00:37:41.995Z,8.57
2024-01-30T00:40:11.867Z,8.51
2024-01-30T00:42:39.600Z,8.47
2024-01-30T00:45:15.885Z,8.53
2024-01-30T00:47:45.183Z,8.61
2024-01-30T00:50:12.576Z,8.66
2024-01-30T00:52:40.281Z,8.64
2024-01-30T00:55:08.185Z,8.62
2024-01-30T00:57:35.310Z,8.69
2024-01-30T01:00:02.442Z,8.60
2024-01-30T01:02:29.673Z,8.60
2024-01-30T01:04:58.973Z,8.54
2024-01-30T01:07:27.386Z,8.62
2024-01-30T01:09:56.573Z,8.68
2024-01-30T01:12:24.060Z,8.60
2024-01-30T01:14:51.379Z,8.75
2024-01-30T01:17:19.670Z,8.67
2024-01-30T01:19:47.293Z,8.73
2024-01-30T01:22:20.359Z,8.71
2024-01-30T01:24:47.684Z,8.77
2024-01-30T01:27:15.032Z,8.78
2024-01-30T01:29:44.335Z,8.80
2024-01-30T01:32:11.600Z,8.77
2024-01-30T01:34:38.871Z,8.85
2024-01-30T01:37:06.079Z,8.99
2024-01-30T01:39:35.919Z,8.85
2024-01-30T01:42:03.803Z,8.82
2024-01-30T01:44:31.179Z,8.83
2024-01-30T01:46:59.869Z,8.90
2024-01-30T01:49:30.253Z,8.89
2024-01-30T01:51:59.561Z,8.97
2024-01-30T01:54:28.441Z,8.95
2024-01-30T01:57:07.218Z,8.98
2024-01-30T01:59:36.028Z,8.96
2024-01-30T02:02:09.133Z,8.96
2024-01-30T02:04:37.689Z,8.98
2024-01-30T02:07:06.209Z,8.86
2024-01-30T02:09:34.383Z,8.94
2024-01-30T02:12:03.065Z,8.96
2024-01-30T02:14:34.833Z,8.94
2024-01-30T02:17:02.533Z,8.88
2024-01-30T02:19:32.862Z,8.82
2024-01-30T02:22:01.918Z,8.85
2024-01-30T02:24:31.334Z,8.89
2024-01-30T02:26:59.991Z,8.88
2024-01-30T02:29:28.387Z,8.86
2024-01-30T02:31:55.669Z,8.91
2024-01-30T02:34:25.382Z,8.76
2024-01-30T02:36:55.390Z,8.79
2024-01-30T02:39:25.135Z,8.77
2024-01-30T02:41:52.742Z,8.83
2024-01-30T02:44:20.103Z,8.86
2024-01-30T02:46:48.341Z,8.79
2024-01-30T02:49:15.844Z,8.79
2024-01-30T02:51:43.132Z,8.93
2024-01-30T02:54:10.926Z,8.75
2024-01-30T02:56:40.879Z,8.84
2024-01-30T02:59:08.391Z,8.75
2024-01-30T03:01:44.047Z,8.74
2024-01-30T03:04:12.857Z,8.73
2024-01-30T03:06:47.576Z,8.71
2024-01-30T03:09:14.893Z,8.77
2024-01-30T03:11:43.548Z,8.64
2024-01-30T03:14:12.285Z,8.77
2024-01-30T03:16:39.536Z,8.72
2024-01-30T03:19:09.323Z,8.89
2024-01-30T03:21:36.565Z,8.79
2024-01-30T03:24:04.139Z,8.78
2024-01-30T03:26:32.065Z,8.89
2024-01-30T03:29:00.720Z,8.82
2024-01-30T03:31:28.151Z,8.82
2024-01-30T03:33:55.767Z,8.88
2024-01-30T03:36:25.448Z,8.81
2024-01-30T03:38:55.917Z,8.75
2024-01-30T03:41:23.154Z,8.74
2024-01-30T03:43:50.803Z,8.76
2024-01-30T03:46:20.645Z,8.72
2024-01-30T03:48:49.014Z,8.74
2024-01-30T03:51:17.136Z,8.84
2024-01-30T03:53:44.591Z,8.94
2024-01-30T03:56:14.120Z,8.97
2024-01-30T03:58:41.833Z,8.90
2024-01-30T04:01:09.332Z,8.92
2024-01-30T04:03:37.997Z,8.91
2024-01-30T04:06:06.003Z,8.94
2024-01-30T04:08:33.756Z,8.96
2024-01-30T04:11:06.867Z,9.02
2024-01-30T04:13:35.381Z,8.99
2024-01-30T04:16:06.927Z,9.16
2024-01-30T04:18:35.411Z,8.98
2024-01-30T04:21:04.018Z,8.95
2024-01-30T04:23:31.670Z,9.08
2024-01-30T04:25:58.708Z,8.82
2024-01-30T04:28:25.927Z,9.05
2024-01-30T04:30:53.170Z,9.02
2024-01-30T04:33:20.525Z,9.01
2024-01-30T04:35:47.925Z,9.10
2024-01-30T04:38:17.560Z,8.98
2024-01-30T04:40:44.789Z,9.13
2024-01-30T04:43:11.957Z,9.04
2024-01-30T04:45:39.416Z,9.20
2024-01-30T04:48:07.871Z,9.11
2024-01-30T04:50:38.429Z,9.08
2024-01-30T04:53:05.526Z,9.17
2024-01-30T04:55:34.328Z,9.29
2024-01-30T04:58:01.466Z,9.08
2024-01-30T05:00:31.711Z,9.07
2024-01-30T05:03:04.084Z,9.18
2024-01-30T05:05:32.272Z,9.25
2024-01-30T05:07:59.299Z,9.15
2024-01-30T05:10:29.963Z,9.15
2024-01-30T05:12:58.497Z,9.24
2024-01-30T05:15:25.824Z,9.23
2024-01-30T05:17:53.201Z,9.16
2024-01-30T05:20:22.153Z,9.19
2024-01-30T05:22:49.621Z,9.17
2024-01-30T05:25:17.072Z,9.16
2024-01-30T05:27:44.079Z,9.16
2024-01-30T05:30:17.102Z,9.23
2024-01-30T05:32:51.010Z,9.18
2024-01-30T05:35:18.258Z,9.11
2024-01-30T05:37:45.809Z,9.14
2024-01-30T05:40:13.356Z,9.20
2024-01-30T05:42:40.815Z,9.16
2024-01-30T05:45:09.907Z,9.24
2024-01-30T05:47:42.343Z,9.17
2024-01-30T05:50:29.754Z,9.10
2024-01-30T05:53:21.970Z,9.15
2024-01-30T05:55:49.228Z,9.21
2024-01-30T05:58:48.624Z,9.25
2024-01-30T06:01:16.436Z,9.18
2024-01-30T06:03:45.415Z,9.24
2024-01-30T06:06:12.695Z,9.20
2024-01-30T06:08:40.390Z,9.23
2024-01-30T06:11:12.359Z,9.22
2024-01-30T06:16:31.245Z,9.29
2024-01-30T06:21:52.289Z,9.35
2024-01-30T06:24:36.949Z,9.41
2024-01-30T06:27:06.316Z,9.52
2024-01-30T06:29:46.146Z,9.47
2024-01-30T06:32:17.085Z,9.58
2024-01-30T06:35:37.718Z,9.68
2024-01-30T06:38:12.407Z,9.60
2024-01-30T06:40:44.618Z,9.59
2024-01-30T06:43:14.478Z,9.68
2024-01-30T06:45:45.790Z,9.68
2024-01-30T06:48:13.818Z,9.73
2024-01-30T06:53:52.900Z,9.74
2024-01-30T06:56:22.447Z,9.83
2024-01-30T06:58:51.473Z,9.90
2024-01-30T07:01:22.885Z,9.85
2024-01-30T07:03:56.253Z,9.93
2024-01-30T07:06:30.414Z,9.96
2024-01-30T07:08:59.936Z,9.93
2024-01-30T07:11:30.374Z,10.01
2024-01-30T07:13:57.306Z,10.18
2024-01-30T07:16:29.977Z,10.06
2024-01-30T07:19:08.877Z,10.10
2024-01-30T07:21:42.655Z,10.22
2024-01-30T07:24:16.631Z,10.32
2024-01-30T07:26:51.042Z,10.31
2024-01-30T07:29:18.800Z,10.26
2024-01-30T07:31:46.220Z,10.19
2024-01-30T07:34:16.508Z,10.23
2024-01-30T07:36:48.428Z,10.34
2024-01-30T07:39:19.780Z,10.30
2024-01-30T07:41:47.611Z,10.30
2024-01-30T07:44:15.304Z,10.30
2024-01-30T07:46:42.782Z,10.49
2024-01-30T07:49:11.601Z,10.29
2024-01-30T07:51:38.997Z,10.35
2024-01-30T07:54:18.655Z,10.39
2024-01-30T07:56:47.869Z,10.39
2024-01-30T07:59:15.021Z,10.22
2024-01-30T08:01:46.079Z,10.31
2024-01-30T08:04:17.565Z,10.35
2024-01-30T08:06:45.843Z,10.37
2024-01-30T08:09:16.058Z,10.51
2024-01-30T08:11:43.044Z,10.30
2024-01-30T08:14:12.691Z,10.50
2024-01-30T08:16:42.898Z,10.30
2024-01-30T08:19:10.115Z,10.44
2024-01-30T08:21:39.885Z,10.34
2024-01-30T08:24:11.540Z,10.49
2024-01-30T08:26:41.666Z,10.62
2024-01-30T08:29:09.152Z,10.39
2024-01-30T08:31:37.971Z,10.51
2024-01-30T08:34:05.270Z,10.61
2024-01-30T08:36:32.665Z,10.71
2024-01-30T08:39:02.778Z,10.55
2024-01-30T08:41:35.737Z,10.67
2024-01-30T08:44:03.118Z,10.52
2024-01-30T08:46:30.562Z,10.69
2024-01-30T08:49:00.416Z,10.67
2024-01-30T08:51:31.783Z,10.78
2024-01-30T08:53:59.123Z,10.72
2024-01-30T08:56:29.665Z,10.67
2024-01-30T08:58:59.644Z,10.78
2024-01-30T09:01:37.213Z,10.81
2024-01-30T09:04:16.770Z,10.88
2024-01-30T09:06:44.537Z,10.90
2024-01-30T09:09:11.981Z,11.02
2024-01-30T09:11:41.909Z,11.19
2024-01-30T09:14:13.375Z,11.16
2024-01-30T09:16:41.723Z,11.13
2024-01-30T09:19:10.346Z,11.17
2024-01-30T09:21:42.668Z,11.23
2024-01-30T09:24:10.249Z,11.22
2024-01-30T09:26:37.688Z,11.35
2024-01-30T09:29:05.075Z,11.37
2024-01-30T09:31:34.981Z,11.41
2024-01-30T09:34:02.431Z,11.22
2024-01-30T09:36:33.088Z,11.31
2024-01-30T09:39:03.266Z,11.18
2024-01-30T09:41:36.413Z,11.14
2024-01-30T09:44:07.211Z,11.06
2024-01-30T09:46:36.455Z,10.98
2024-01-30T09:49:07.938Z,10.93
2024-01-30T09:51:42.356Z,11.05
2024-01-30T09:54:09.686Z,10.94
2024-01-30T09:56:46.257Z,10.77
2024-01-30T09:59:21.338Z,10.62
2024-01-30T10:01:49.668Z,10.60
2024-01-30T10:04:19.996Z,10.68
2024-01-30T10:06:49.300Z,10.50
2024-01-30T10:09:19.793Z,10.50
2024-01-30T10:11:56.221Z,10.39
2024-01-30T10:14:23.770Z,10.35
2024-01-30T10:17:00.646Z,10.37
2024-01-30T10:19:29.152Z,10.48
2024-01-30T10:22:04.334Z,10.47
2024-01-30T10:24:52.861Z,10.47
2024-01-30T10:27:43.512Z,10.28
2024-01-30T10:30:11.882Z,10.28
2024-01-30T10:32:42.247Z,10.14
2024-01-30T10:35:20.181Z,10.17
2024-01-30T10:37:54.637Z,10.17
2024-01-30T10:40:37.020Z,10.27
2024-01-30T10:43:14.713Z,10.26
2024-01-30T10:45:44.972Z,10.19
2024-01-30T10:48:33.502Z,10.29
2024-01-30T10:51:07.904Z,10.03
2024-01-30T10:53:44.903Z,9.97
2024-01-30T10:56:13.171Z,9.99
2024-01-30T10:58:45.700Z,10.07
2024-01-30T11:01:14.405Z,9.87
2024-01-30T11:03:43.208Z,9.71
2024-01-30T11:06:26.789Z,9.73
2024-01-30T11:09:11.857Z,9.66
2024-01-30T11:11:50.453Z,9.55
2024-01-30T11:14:18.934Z,9.55
2024-01-30T11:16:50.561Z,9.53
2024-01-30T11:19:25.331Z,9.45
2024-01-30T11:21:58.729Z,9.52
2024-01-30T11:24:30.161Z,9.53
2024-01-30T11:26:59.723Z,9.67
2024-01-30T11:29:28.284Z,9.60
2024-01-30T11:31:56.282Z,9.62
2024-01-30T11:34:26.623Z,9.68
2024-01-30T11:37:00.488Z,9.76
2024-01-30T11:39:42.582Z,9.59
2024-01-30T11:42:10.940Z,9.70
2024-01-30T11:44:39.238Z,9.75
2024-01-30T11:47:06.617Z,9.80
2024-01-30T11:49:36.161Z,9.74
2024-01-30T11:52:05.004Z,9.86
2024-01-30T11:54:43.310Z,9.82
2024-01-30T11:57:13.734Z,10.06
2024-01-30T11:59:40.931Z,10.05
2024-01-30T12:02:08.126Z,10.03
2024-01-30T12:04:35.226Z,9.82
2024-01-30T12:07:04.857Z,9.94
2024-01-30T12:09:32.192Z,9.93
2024-01-30T12:12:01.140Z,9.88
2024-01-30T12:14:30.287Z,9.76
2024-01-30T12:16:59.916Z,9.78
2024-01-30T12:19:27.934Z,9.61
2024-01-30T12:22:00.755Z,9.50
2024-01-30T12:24:32.398Z,9.57
2024-01-30T12:27:22.788Z,9.55
2024-01-30T12:29:56.436Z,9.50
2024-01-30T12:32:24.631Z,9.56
2024-01-30T12:34:57.380Z,9.52
2024-01-30T12:37:31.217Z,9.55
2024-01-30T12:40:01.434Z,9.67
2024-01-30T12:42:37.085Z,9.63
2024-01-30T12:45:08.427Z,9.70
2024-01-30T12:47:35.773Z,9.84
2024-01-30T12:50:09.084Z,9.82
2024-01-30T12:52:38.226Z,9.59
2024-01-30T12:55:08.814Z,9.60
2024-01-30T12:57:37.347Z,9.57
2024-01-30T13:00:05.754Z,9.67
2024-01-30T13:02:37.750Z,9.69
2024-01-30T13:05:06.746Z,9.63
2024-01-30T13:07:34.885Z,9.68
2024-01-30T13:10:05.490Z,9.71
2024-01-30T13:12:34.974Z,9.85
2024-01-30T13:15:06.586Z,9.79
2024-01-30T13:17:34.490Z,9.75
2024-01-30T13:20:07.961Z,9.55
2024-01-30T13:22:40.140Z,9.54
2024-01-30T13:25:08.914Z,9.43
2024-01-30T13:27:36.966Z,9.38
2024-01-30T13:30:10.927Z,9.41
2024-01-30T13:32:38.934Z,9.42
2024-01-30T13:35:09.741Z,9.28
2024-01-30T13:37:40.887Z,9.52
2024-01-30T13:40:12.896Z,9.38
2024-01-30T13:42:41.557Z,9.29
2024-01-30T13:45:13.048Z,9.22
2024-01-30T13:47:40.623Z,9.28
2024-01-30T13:50:09.315Z,9.23
2024-01-30T13:52:43.613Z,9.14
2024-01-30T13:55:13.243Z,9.01
2024-01-30T13:57:41.852Z,9.25
2024-01-30T14:00:10.283Z,9.15
2024-01-30T14:02:40.150Z,9.06
2024-01-30T14:05:08.039Z,9.09
2024-01-30T14:07:41.628Z,9.08
2024-01-30T14:10:11.955Z,9.09
2024-01-30T14:12:46.502Z,9.24
2024-01-30T14:15:27.340Z,9.01
2024-01-30T14:17:59.665Z,9.09
2024-01-30T14:20:30.442Z,9.04
2024-01-30T14:22:58.166Z,9.10
2024-01-30T14:25:28.448Z,9.03
2024-01-30T14:27:55.894Z,9.07
2024-01-30T14:30:27.263Z,9.05
2024-01-30T14:32:55.167Z,9.21
2024-01-30T14:35:24.774Z,9.09
2024-01-30T14:37:54.862Z,9.11
2024-01-30T14:40:22.808Z,8.94
2024-01-30T14:42:50.278Z,9.00
2024-01-30T14:45:19.168Z,8.97
2024-01-30T14:47:48.333Z,8.98
2024-01-30T14:50:26.016Z,8.96
2024-01-30T14:52:53.673Z,8.82
2024-01-30T14:55:21.270Z,8.98
2024-01-30T14:57:49.973Z,8.84
2024-01-30T15:00:20.262Z,8.86
2024-01-30T15:02:48.376Z,8.97
2024-01-30T15:05:21.826Z,8.87
2024-01-30T15:07:53.593Z,8.85
2024-01-30T15:10:23.871Z,8.82
2024-01-30T15:12:51.579Z,8.94
2024-01-30T15:15:19.414Z,8.84
2024-01-30T15:17:46.840Z,8.71
2024-01-30T15:20:14.074Z,8.75
2024-01-30T15:22:41.989Z,8.69
2024-01-30T15:25:13.929Z,8.65
2024-01-30T15:27:41.145Z,8.62
2024-01-30T15:30:09.256Z,8.44
2024-01-30T15:32:36.603Z,8.39
2024-01-30T15:35:07.132Z,8.46
2024-01-30T15:37:37.350Z,8.47
2024-01-30T15:40:09.866Z,8.50
2024-01-30T15:42:39.152Z,8.48
2024-01-30T15:45:07.595Z,8.41
2024-01-30T15:47:34.922Z,8.43
2024-01-30T15:50:03.385Z,8.46
2024-01-30T15:52:31.129Z,8.45
2024-01-30T15:54:58.950Z,8.41
2024-01-30T15:57:29.128Z,8.40
2024-01-30T15:59:58.905Z,8.36
2024-01-30T16:02:30.075Z,8.30
2024-01-30T16:04:58.201Z,8.25
2024-01-30T16:07:29.798Z,8.34
2024-01-30T16:10:03.172Z,8.32
2024-01-30T16:12:31.007Z,8.30
2024-01-30T16:15:03.242Z,8.30
2024-01-30T16:17:34.558Z,8.15
2024-01-30T16:20:09.248Z,8.22
2024-01-30T16:22:37.089Z,8.10
2024-01-30T16:25:05.612Z,8.21
2024-01-30T16:27:34.351Z,8.15
2024-01-30T16:30:05.429Z,8.11
2024-01-30T16:32:33.301Z,8.11
2024-01-30T16:35:08.433Z,8.11
2024-01-30T16:37:37.340Z,8.05
2024-01-30T16:40:05.805Z,8.04
2024-01-30T16:42:33.557Z,8.04
2024-01-30T16:45:06.707Z,7.95
2024-01-30T16:47:34.643Z,8.01
2024-01-30T16:50:04.597Z,7.97
2024-01-30T16:52:32.111Z,7.95
2024-01-30T16:54:59.632Z,8.04
2024-01-30T16:57:27.493Z,7.94
2024-01-30T16:59:55.169Z,8.07
2024-01-30T17:02:24.041Z,8.07
2024-01-30T17:04:52.585Z,8.08
2024-01-30T17:07:20.783Z,8.00
2024-01-30T17:09:48.084Z,8.00
2024-01-30T17:12:17.855Z,7.97
2024-01-30T17:14:45.843Z,8.02
2024-01-30T17:17:16.084Z,7.97
2024-01-30T17:19:52.476Z,8.02
2024-01-30T17:22:22.858Z,8.04
2024-01-30T17:24:52.530Z,8.06
2024-01-30T17:27:23.097Z,8.00
2024-01-30T17:30:10.220Z,8.06
2024-01-30T17:32:42.369Z,8.10
2024-01-30T17:35:17.143Z,8.11
2024-01-30T17:37:48.916Z,8.16
2024-01-30T17:40:20.110Z,8.11
2024-01-30T17:42:51.608Z,8.14
2024-01-30T17:45:22.424Z,8.07
2024-01-30T17:47:50.905Z,8.05
2024-01-30T17:50:46.774Z,8.04
2024-01-30T17:53:15.465Z,8.07
2024-01-30T17:55:50.557Z,8.07
2024-01-30T17:58:21.360Z,8.16
2024-01-30T18:00:52.974Z,8.11
2024-01-30T18:03:22.527Z,8.13
2024-01-30T18:05:57.104Z,8.09
2024-01-30T18:08:25.257Z,8.18
2024-01-30T18:10:54.297Z,8.13
2024-01-30T18:13:22.714Z,8.10
2024-01-30T18:15:50.237Z,8.10
2024-01-30T18:18:19.241Z,8.18
2024-01-30T18:20:53.417Z,8.12
2024-01-30T18:23:22.147Z,8.16
2024-01-30T18:25:49.979Z,8.13
2024-01-30T18:28:17.842Z,8.02
2024-01-30T18:30:47.408Z,8.12
2024-01-30T18:33:16.227Z,8.16
2024-01-30T18:35:43.806Z,8.09
2024-01-30T18:38:13.128Z,8.09
2024-01-30T18:40:40.788Z,8.04
2024-01-30T18:43:09.506Z,8.03
2024-01-30T18:45:39.128Z,8.04
2024-01-30T18:48:09.508Z,8.06
2024-01-30T18:50:39.109Z,8.08
2024-01-30T18:53:06.743Z,8.08
2024-01-30T18:55:37.397Z,8.10
2024-01-30T18:58:12.818Z,8.03
2024-01-30T19:00:44.520Z,8.04
2024-01-30T19:03:12.903Z,8.00
2024-01-30T19:05:44.951Z,8.02
2024-01-30T19:08:12.381Z,7.85
2024-01-30T19:10:44.171Z,7.84
2024-01-30T19:13:13.723Z,7.71
2024-01-30T19:15:45.255Z,7.60
2024-01-30T19:18:14.534Z,7.55
2024-01-30T19:20:43.308Z,7.46
2024-01-30T19:23:10.521Z,7.39
2024-01-30T19:25:44.353Z,7.45
2024-01-30T19:28:14.893Z,7.46
2024-01-30T19:30:43.697Z,7.49
2024-01-30T19:33:10.920Z,7.46
2024-01-30T19:35:38.212Z,7.56
2024-01-30T19:38:09.671Z,7.51
2024-01-30T19:40:37.273Z,7.45
2024-01-30T19:43:08.104Z,7.35
2024-01-30T19:45:37.374Z,7.31
2024-01-30T19:48:05.531Z,7.21
2024-01-30T19:50:34.132Z,7.18
2024-01-30T19:53:01.963Z,7.15
2024-01-30T19:55:30.338Z,7.28
2024-01-30T19:57:58.852Z,7.22
2024-01-30T20:00:39.134Z,7.21
2024-01-30T20:03:07.139Z,7.18
2024-01-30T20:05:36.555Z,7.13
2024-01-30T20:08:04.926Z,7.12
2024-01-30T20:10:34.763Z,7.12
2024-01-30T20:13:02.471Z,7.06
2024-01-30T20:15:32.051Z,7.06
2024-01-30T20:17:59.941Z,7.08
2024-01-30T20:20:27.675Z,7.13
2024-01-30T20:22:55.297Z,7.24
2024-01-30T20:25:23.643Z,7.18
2024-01-30T20:27:52.690Z,7.18
2024-01-30T20:30:23.866Z,7.02
2024-01-30T20:32:54.188Z,6.95
2024-01-30T20:35:23.135Z,7.00
2024-01-30T20:37:54.854Z,6.93
2024-01-30T20:40:22.659Z,6.80
2024-01-30T20:42:50.045Z,6.84
2024-01-30T20:45:17.834Z,6.79
2024-01-30T20:47:46.822Z,6.79
2024-01-30T20:50:17.507Z,6.79
2024-01-30T20:52:45.780Z,6.76
2024-01-30T20:55:14.777Z,6.80
2024-01-30T20:57:42.263Z,6.79
2024-01-30T21:00:11.301Z,6.80
2024-01-30T21:02:41.155Z,6.81
2024-01-30T21:05:10.243Z,6.77
2024-01-30T21:07:40.902Z,6.82
2024-01-30T21:10:09.728Z,6.73
2024-01-30T21:12:37.483Z,6.79
2024-01-30T21:15:06.673Z,6.72
2024-01-30T21:17:40.014Z,6.87
2024-01-30T21:20:09.347Z,6.96
2024-01-30T21:22:40.173Z,6.99
2024-01-30T21:25:09.676Z,7.05
2024-01-30T21:27:40.102Z,7.07
2024-01-30T21:30:09.590Z,7.16
2024-01-30T21:32:38.305Z,7.05
2024-01-30T21:35:07.032Z,7.10
2024-01-30T21:37:34.584Z,6.94
2024-01-30T21:40:05.619Z,6.79
2024-01-30T21:42:34.651Z,6.69
2024-01-30T21:45:02.016Z,6.69
2024-01-30T21:47:30.977Z,6.80
2024-01-30T21:49:59.489Z,6.70
2024-01-30T21:52:27.032Z,6.65
2024-01-30T21:54:54.762Z,6.68
2024-01-30T21:57:22.392Z,6.68
2024-01-30T21:59:51.439Z,6.70
2024-01-30T22:02:21.001Z,6.68
2024-01-30T22:04:52.806Z,6.73
2024-01-30T22:07:27.729Z,6.65
2024-01-30T22:09:56.075Z,6.64
2024-01-30T22:12:23.234Z,6.59
2024-01-30T22:14:52.052Z,6.60
2024-01-30T22:17:21.278Z,6.61
2024-01-30T22:19:49.184Z,6.56
2024-01-30T22:22:17.436Z,6.61
2024-01-30T22:24:53.731Z,6.64
2024-01-30T22:27:22.170Z,6.74
2024-01-30T22:29:51.150Z,6.72
2024-01-30T22:32:19.654Z,6.71
2024-01-30T22:34:47.626Z,6.75
2024-01-30T22:37:15.078Z,6.86
2024-01-30T22:39:42.737Z,6.82
2024-01-30T22:42:17.644Z,6.80
2024-01-30T22:44:46.350Z,6.86
2024-01-30T22:47:17.207Z,6.87
2024-01-30T22:49:44.635Z,6.75
2024-01-30T22:52:13.316Z,6.86
2024-01-30T22:54:41.759Z,6.89
2024-01-30T22:57:10.101Z,6.87
2024-01-30T22:59:38.266Z,6.91
2024-01-30T23:02:05.998Z,6.80
2024-01-30T23:04:35.285Z,6.82
2024-01-30T23:07:03.005Z,6.98
2024-01-30T23:09:30.305Z,7.03
2024-01-30T23:11:57.788Z,7.11
2024-01-30T23:14:25.040Z,6.94
2024-01-30T23:16:54.477Z,6.98
2024-01-30T23:19:26.365Z,6.87
2024-01-30T23:21:55.478Z,6.92
2024-01-30T23:24:22.770Z,6.92
2024-01-30T23:26:50.835Z,6.82
2024-01-30T23:29:18.012Z,6.72
2024-01-30T23:31:45.244Z,6.70
2024-01-30T23:34:13.350Z,6.76
2024-01-30T23:36:43.399Z,6.71
2024-01-30T23:39:15.048Z,6.77
2024-01-30T23:41:42.706Z,6.73
2024-01-30T23:44:11.925Z,6.70
2024-01-30T23:46:40.637Z,6.72
2024-01-30T23:49:07.985Z,6.61
2024-01-30T23:51:35.531Z,6.64
2024-01-30T23:54:04.472Z,6.64
2024-01-30T23:56:33.098Z,6.57
2024-01-30T23:59:00.412Z,6.47
